Eastonville, Colorado
Current Conditions -  °F | °C
As of 9:56 AM on Sunday 23 Nov 2014 (Local Time) from KSHM Reporting Station
Few Clouds Few Clouds  
Wind Chill: 20°   Ceiling: Unl
Heat Index: 32°   Visibility: 10mi
Dew Point: 20°   Wind: 17mph
Humidity: 62%   Direction: 360°N
Pressure: 29.78"   Gusts: 29mph
Location:  39.0051°N, 104.503°W
Report Text: KSHM 231656Z AUTO 36015G25KT 10SM FEW100 00/M07 A2978 RMK AO2 SLP081 T10021068
Loading
Personal Weather Stations






























Interactive Weather Map New forecast layout! Learn more

10-Day Weather Forecast

Advertisements
Track Severe Weather on mobile